createdAt,value
2022-12-08T00:01:37.170Z,0.90
2022-12-08T00:04:06.214Z,0.90
2022-12-08T00:06:57.565Z,0.90
2022-12-08T00:09:30.926Z,0.90
2022-12-08T00:12:04.105Z,0.90
2022-12-08T00:14:33.921Z,1.00
2022-12-08T00:17:03.339Z,1.00
2022-12-08T00:19:31.565Z,1.00
2022-12-08T00:22:01.713Z,1.00
2022-12-08T00:24:33.014Z,1.00
2022-12-08T00:27:01.256Z,1.00
2022-12-08T00:29:29.479Z,1.00
2022-12-08T00:31:57.698Z,1.00
2022-12-08T00:34:28.116Z,1.00
2022-12-08T00:36:56.224Z,1.10
2022-12-08T00:39:25.911Z,1.10
2022-12-08T00:42:11.847Z,1.10
2022-12-08T00:44:40.539Z,1.10
2022-12-08T00:47:08.675Z,1.10
2022-12-08T00:49:36.875Z,1.10
2022-12-08T00:52:05.102Z,1.10
2022-12-08T00:54:34.540Z,1.10
2022-12-08T00:57:02.725Z,1.10
2022-12-08T00:59:30.774Z,1.10
2022-12-08T01:01:58.820Z,1.10
2022-12-08T01:04:27.234Z,1.00
2022-12-08T01:06:55.490Z,1.10
2022-12-08T01:09:23.607Z,1.10
2022-12-08T01:11:53.035Z,1.10
2022-12-08T01:14:21.254Z,1.10
2022-12-08T01:16:49.497Z,1.10
2022-12-08T01:19:18.372Z,1.10
2022-12-08T01:21:47.509Z,1.10
2022-12-08T01:24:18.184Z,1.20
2022-12-08T01:26:46.399Z,1.20
2022-12-08T01:29:16.232Z,1.20
2022-12-08T01:31:44.556Z,1.20
2022-12-08T01:34:13.128Z,1.20
2022-12-08T01:36:42.129Z,1.20
2022-12-08T01:39:15.429Z,1.20
2022-12-08T01:41:44.919Z,1.20
2022-12-08T01:44:50.444Z,1.20
2022-12-08T01:47:20.262Z,1.20
2022-12-08T01:49:48.951Z,1.20
2022-12-08T01:52:22.931Z,1.20
2022-12-08T01:54:54.523Z,1.30
2022-12-08T01:57:26.001Z,1.20
2022-12-08T01:59:57.849Z,1.30
2022-12-08T02:02:30.703Z,1.30
2022-12-08T02:04:58.900Z,1.20
2022-12-08T02:07:27.194Z,1.20
2022-12-08T02:09:56.629Z,1.20
2022-12-08T02:12:24.840Z,1.30
2022-12-08T02:14:53.015Z,1.30
2022-12-08T02:17:35.231Z,1.20
2022-12-08T02:20:33.036Z,1.20
2022-12-08T02:23:07.503Z,1.20
2022-12-08T02:25:48.642Z,1.10
2022-12-08T02:28:39.205Z,1.10
2022-12-08T02:31:15.083Z,1.10
2022-12-08T02:34:13.520Z,1.20
2022-12-08T02:36:49.735Z,1.20
2022-12-08T02:39:38.300Z,1.20
2022-12-08T02:42:13.147Z,1.20
2022-12-08T02:44:44.539Z,1.20
2022-12-08T02:47:16.848Z,1.20
2022-12-08T02:49:46.728Z,1.20
2022-12-08T02:52:40.865Z,1.20
2022-12-08T02:55:22.986Z,1.30
2022-12-08T02:58:16.581Z,1.20
2022-12-08T03:00:55.131Z,1.20
2022-12-08T03:03:32.857Z,1.20
2022-12-08T03:06:11.139Z,1.30
2022-12-08T03:08:50.061Z,1.20
2022-12-08T03:11:21.786Z,1.30
2022-12-08T03:13:52.966Z,1.30
2022-12-08T03:16:25.557Z,1.40
2022-12-08T03:18:57.362Z,1.40
2022-12-08T03:21:27.770Z,1.40
2022-12-08T03:23:57.880Z,1.40
2022-12-08T03:26:31.372Z,1.40
2022-12-08T03:29:02.011Z,1.40
2022-12-08T03:31:34.916Z,1.40
2022-12-08T03:34:05.630Z,1.40
2022-12-08T03:36:35.116Z,1.30
2022-12-08T03:39:03.626Z,1.30
2022-12-08T03:41:34.163Z,1.30
2022-12-08T03:44:02.261Z,1.30
2022-12-08T03:46:31.976Z,1.30
2022-12-08T03:49:00.075Z,1.30
2022-12-08T03:51:28.253Z,1.30
2022-12-08T03:53:57.723Z,1.30
2022-12-08T03:56:27.335Z,1.30
2022-12-08T03:58:55.925Z,1.40
2022-12-08T04:01:24.317Z,1.40
2022-12-08T04:03:52.912Z,1.40
2022-12-08T04:06:22.115Z,1.40
2022-12-08T04:08:51.292Z,1.40
2022-12-08T04:11:23.272Z,1.40
2022-12-08T04:13:51.609Z,1.40
2022-12-08T04:16:22.102Z,1.30
2022-12-08T04:18:51.015Z,1.30
2022-12-08T04:21:19.379Z,1.40
2022-12-08T04:23:48.151Z,1.40
2022-12-08T04:26:17.007Z,1.40
2022-12-08T04:28:46.597Z,1.30
2022-12-08T04:31:14.935Z,1.30
2022-12-08T04:33:43.067Z,1.30
2022-12-08T04:36:11.615Z,1.20
2022-12-08T04:38:40.516Z,1.30
2022-12-08T04:41:11.081Z,1.20
2022-12-08T04:43:39.210Z,1.20
2022-12-08T04:46:09.905Z,1.20
2022-12-08T04:48:39.215Z,1.20
2022-12-08T04:51:08.304Z,1.10
2022-12-08T04:53:43.388Z,1.20
2022-12-08T04:56:15.222Z,1.20
2022-12-08T04:58:43.301Z,1.30
2022-12-08T05:01:13.349Z,1.30
2022-12-08T05:03:41.451Z,1.30
2022-12-08T05:06:13.389Z,1.30
2022-12-08T05:08:41.605Z,1.40
2022-12-08T05:11:11.135Z,1.30
2022-12-08T05:13:39.365Z,1.30
2022-12-08T05:16:16.134Z,1.30
2022-12-08T05:18:44.582Z,1.30
2022-12-08T05:21:12.766Z,1.30
2022-12-08T05:23:43.232Z,1.30
2022-12-08T05:26:13.384Z,1.40
2022-12-08T05:28:43.002Z,1.50
2022-12-08T05:31:11.675Z,1.50
2022-12-08T05:33:41.904Z,1.50
2022-12-08T05:36:10.800Z,1.50
2022-12-08T05:38:38.980Z,1.50
2022-12-08T05:41:07.441Z,1.60
2022-12-08T05:43:35.726Z,1.60
2022-12-08T05:46:04.159Z,1.60
2022-12-08T05:48:32.414Z,1.60
2022-12-08T05:51:01.923Z,1.60
2022-12-08T05:53:32.348Z,1.70
2022-12-08T05:56:00.436Z,1.70
2022-12-08T05:58:28.534Z,1.70
2022-12-08T06:00:59.617Z,1.80
2022-12-08T06:03:27.843Z,1.80
2022-12-08T06:05:56.122Z,1.70
2022-12-08T06:08:25.682Z,1.80
2022-12-08T06:10:53.850Z,1.80
2022-12-08T06:13:22.017Z,1.80
2022-12-08T06:15:50.077Z,1.80
2022-12-08T06:18:18.146Z,1.80
2022-12-08T06:20:46.135Z,1.80
2022-12-08T06:23:14.226Z,1.80
2022-12-08T06:25:43.645Z,1.80
2022-12-08T06:28:11.671Z,1.80
2022-12-08T06:30:39.735Z,1.80
2022-12-08T06:33:07.877Z,1.70
2022-12-08T06:35:36.047Z,1.80
2022-12-08T06:38:04.104Z,1.80
2022-12-08T06:40:32.149Z,1.90
2022-12-08T06:43:01.621Z,1.90
2022-12-08T06:45:29.834Z,1.90
2022-12-08T06:47:58.007Z,1.90
2022-12-08T06:50:26.102Z,1.90
2022-12-08T06:53:03.073Z,2.00
2022-12-08T06:58:24.467Z,2.00
2022-12-08T07:00:52.608Z,1.90
2022-12-08T07:03:20.796Z,1.90
2022-12-08T07:05:48.942Z,1.90
2022-12-08T07:08:20.018Z,2.00
2022-12-08T07:10:48.180Z,2.00
2022-12-08T07:13:16.325Z,2.00
2022-12-08T07:15:45.871Z,2.00
2022-12-08T07:18:14.150Z,2.10
2022-12-08T07:20:42.400Z,2.10
2022-12-08T07:23:10.776Z,2.20
2022-12-08T07:25:38.900Z,2.20
2022-12-08T07:28:11.571Z,2.20
2022-12-08T07:30:39.982Z,2.20
2022-12-08T07:33:09.463Z,2.10
2022-12-08T07:35:37.630Z,2.10
2022-12-08T07:38:05.779Z,2.20
2022-12-08T07:40:33.873Z,2.20
2022-12-08T07:43:07.861Z,2.20
2022-12-08T07:45:35.908Z,2.20
2022-12-08T07:48:04.081Z,2.20
2022-12-08T07:50:33.577Z,2.20
2022-12-08T07:53:02.887Z,2.30
2022-12-08T07:55:31.051Z,2.30
2022-12-08T07:57:59.219Z,2.40
2022-12-08T08:00:27.413Z,2.40
2022-12-08T08:02:55.706Z,2.40
2022-12-08T08:05:24.168Z,2.40
2022-12-08T08:07:53.729Z,2.50
2022-12-08T08:10:21.902Z,2.50
2022-12-08T08:12:50.002Z,2.50
2022-12-08T08:15:19.305Z,2.50
2022-12-08T08:17:51.549Z,2.50
2022-12-08T08:20:20.186Z,2.50
2022-12-08T08:22:50.280Z,2.50
2022-12-08T08:25:22.848Z,2.60
2022-12-08T08:27:58.850Z,2.60
2022-12-08T08:30:29.998Z,2.60
2022-12-08T08:33:01.752Z,2.50
2022-12-08T08:35:30.646Z,2.60
2022-12-08T08:37:58.786Z,2.60
2022-12-08T08:40:28.345Z,2.60
2022-12-08T08:42:56.642Z,2.80
2022-12-08T08:45:24.745Z,2.90
2022-12-08T08:48:08.293Z,2.80
2022-12-08T08:50:37.832Z,2.80
2022-12-08T08:53:08.076Z,2.90
2022-12-08T08:55:40.188Z,2.80
2022-12-08T08:58:08.277Z,2.80
2022-12-08T09:00:36.450Z,2.80
2022-12-08T09:03:04.964Z,2.90
2022-12-08T09:05:33.055Z,2.90
2022-12-08T09:08:01.198Z,3.00
2022-12-08T09:10:29.362Z,3.00
2022-12-08T09:12:58.919Z,3.00
2022-12-08T09:15:27.079Z,3.00
2022-12-08T09:17:56.008Z,3.10
2022-12-08T09:20:24.168Z,3.10
2022-12-08T09:22:52.498Z,3.10
2022-12-08T09:25:20.708Z,3.20
2022-12-08T09:27:48.869Z,3.20
2022-12-08T09:30:18.734Z,3.20
2022-12-08T09:32:46.925Z,3.20
2022-12-08T09:35:15.271Z,3.10
2022-12-08T09:37:43.448Z,3.10
2022-12-08T09:40:16.875Z,3.20
2022-12-08T09:42:51.883Z,3.10
2022-12-08T09:45:24.136Z,3.10
2022-12-08T09:48:00.882Z,3.20
2022-12-08T09:50:37.100Z,3.20
2022-12-08T09:53:10.502Z,3.20
2022-12-08T09:55:45.737Z,3.20
2022-12-08T09:58:22.110Z,3.30
2022-12-08T10:00:53.999Z,3.30
2022-12-08T10:03:25.451Z,3.40
2022-12-08T10:06:01.445Z,3.40
2022-12-08T10:08:35.608Z,3.50
2022-12-08T10:11:14.381Z,3.60
2022-12-08T10:13:51.873Z,3.60
2022-12-08T10:16:30.116Z,3.60
2022-12-08T10:19:06.485Z,3.70
2022-12-08T10:21:34.755Z,3.70
2022-12-08T10:24:07.152Z,3.70
2022-12-08T10:26:35.292Z,3.60
2022-12-08T10:29:03.738Z,3.60
2022-12-08T10:31:33.354Z,3.50
2022-12-08T10:34:10.875Z,3.50
2022-12-08T10:36:50.536Z,3.50
2022-12-08T10:39:36.714Z,3.50
2022-12-08T10:42:21.944Z,3.50
2022-12-08T10:45:01.726Z,3.50
2022-12-08T10:47:36.080Z,3.60
2022-12-08T10:50:25.162Z,3.60
2022-12-08T10:52:57.468Z,3.60
2022-12-08T10:55:25.999Z,3.60
2022-12-08T10:57:54.260Z,3.70
2022-12-08T11:00:27.161Z,3.70
2022-12-08T11:02:59.927Z,3.70
2022-12-08T11:05:33.192Z,3.70
2022-12-08T11:08:05.477Z,3.70
2022-12-08T11:10:39.196Z,3.60
2022-12-08T11:13:13.774Z,3.60
2022-12-08T11:15:41.909Z,3.50
2022-12-08T11:18:26.963Z,3.50
2022-12-08T11:21:02.305Z,3.50
2022-12-08T11:23:31.369Z,3.50
2022-12-08T11:26:06.394Z,3.40
2022-12-08T11:28:34.432Z,3.40
2022-12-08T11:31:08.246Z,3.40
2022-12-08T11:33:38.478Z,3.30
2022-12-08T11:36:10.412Z,3.40
2022-12-08T11:38:43.093Z,3.30
2022-12-08T11:41:16.667Z,3.30
2022-12-08T11:43:51.890Z,3.30
2022-12-08T11:46:24.474Z,3.30
2022-12-08T11:49:05.899Z,3.40
2022-12-08T11:51:38.561Z,3.40
2022-12-08T11:54:22.662Z,3.50
2022-12-08T11:56:54.435Z,3.50
2022-12-08T11:59:30.214Z,3.40
2022-12-08T12:01:59.490Z,3.40
2022-12-08T12:04:33.224Z,3.50
2022-12-08T12:07:29.396Z,3.40
2022-12-08T12:10:18.914Z,3.40
2022-12-08T12:12:59.158Z,3.50
2022-12-08T12:16:13.898Z,3.50
2022-12-08T12:18:46.400Z,3.50
2022-12-08T12:21:19.805Z,3.50
2022-12-08T12:23:52.704Z,3.60
2022-12-08T12:26:23.132Z,3.60
2022-12-08T12:28:54.528Z,3.60
2022-12-08T12:31:26.573Z,3.60
2022-12-08T12:34:04.773Z,3.60
2022-12-08T12:36:47.593Z,3.50
2022-12-08T12:39:17.168Z,3.50
2022-12-08T12:41:49.592Z,3.40
2022-12-08T12:44:43.164Z,3.40
2022-12-08T12:47:36.224Z,3.40
2022-12-08T12:50:10.365Z,3.50
2022-12-08T12:52:46.398Z,3.40
2022-12-08T12:55:46.199Z,3.50
2022-12-08T12:58:38.958Z,3.50
2022-12-08T13:01:45.150Z,3.60
2022-12-08T13:04:13.491Z,3.60
2022-12-08T13:06:46.760Z,3.60
2022-12-08T13:09:22.329Z,3.60
2022-12-08T13:11:53.684Z,3.50
2022-12-08T13:14:35.058Z,3.50
2022-12-08T13:17:08.508Z,3.50
2022-12-08T13:19:38.388Z,3.50
2022-12-08T13:22:51.674Z,3.30
2022-12-08T13:25:49.584Z,3.30
2022-12-08T13:28:27.037Z,3.30
2022-12-08T13:30:56.818Z,3.40
2022-12-08T13:33:29.294Z,3.40
2022-12-08T13:36:12.773Z,3.40
2022-12-08T13:38:45.005Z,3.50
2022-12-08T13:41:18.403Z,3.40
2022-12-08T13:44:20.198Z,3.40
2022-12-08T13:58:20.418Z,3.50
2022-12-08T14:01:03.078Z,3.40
2022-12-08T14:03:32.369Z,3.40
2022-12-08T14:06:12.034Z,3.40
2022-12-08T14:09:03.722Z,3.50
2022-12-08T14:11:36.779Z,3.50
2022-12-08T14:14:08.754Z,3.40
2022-12-08T14:16:39.891Z,3.40
2022-12-08T14:19:17.913Z,3.40
2022-12-08T14:21:52.601Z,3.30
2022-12-08T14:24:22.520Z,3.20
2022-12-08T14:26:56.905Z,3.20
2022-12-08T14:29:41.725Z,3.20
2022-12-08T14:32:28.734Z,3.30
2022-12-08T14:35:00.011Z,3.30
2022-12-08T14:37:30.357Z,3.30
2022-12-08T14:40:05.928Z,3.30
2022-12-08T14:42:44.957Z,3.30
2022-12-08T14:45:14.897Z,3.30
2022-12-08T14:47:43.557Z,3.30
2022-12-08T14:50:41.297Z,3.30
2022-12-08T14:53:18.282Z,3.30
2022-12-08T14:55:48.651Z,3.30
2022-12-08T14:58:27.784Z,3.20
2022-12-08T15:00:58.498Z,3.20
2022-12-08T15:03:28.249Z,3.10
2022-12-08T15:05:59.493Z,3.20
2022-12-08T15:08:27.889Z,3.10
2022-12-08T15:11:14.514Z,3.10
2022-12-08T15:13:47.481Z,3.10
2022-12-08T15:16:31.956Z,3.10
2022-12-08T15:19:16.606Z,3.10
2022-12-08T15:21:46.326Z,3.10
2022-12-08T15:24:16.731Z,3.00
2022-12-08T15:26:47.216Z,3.00
2022-12-08T15:29:21.883Z,3.10
2022-12-08T15:31:50.611Z,3.00
2022-12-08T15:34:18.997Z,3.10
2022-12-08T15:36:51.029Z,3.10
2022-12-08T15:39:31.129Z,3.10
2022-12-08T15:42:00.118Z,3.10
2022-12-08T15:44:33.096Z,3.00
2022-12-08T15:47:01.805Z,3.00
2022-12-08T15:49:30.113Z,3.00
2022-12-08T15:52:09.288Z,3.00
2022-12-08T15:54:40.037Z,3.00
2022-12-08T15:57:27.844Z,3.00
2022-12-08T16:00:15.396Z,2.90
2022-12-08T16:03:18.754Z,2.90
2022-12-08T16:06:01.392Z,2.90
2022-12-08T16:08:46.292Z,2.80
2022-12-08T16:15:23.750Z,2.80
2022-12-08T16:17:16.619Z,2.80
2022-12-08T16:19:45.500Z,2.60
2022-12-08T16:22:51.820Z,2.60
2022-12-08T16:25:23.171Z,2.60
2022-12-08T16:28:37.032Z,2.60
2022-12-08T16:30:41.705Z,2.60
2022-12-08T16:33:12.922Z,2.70
2022-12-08T16:35:42.700Z,2.60
2022-12-08T16:38:14.770Z,2.60
2022-12-08T16:40:59.656Z,2.60
2022-12-08T16:43:30.404Z,2.60
2022-12-08T16:45:58.873Z,2.60
2022-12-08T16:48:28.551Z,2.60
2022-12-08T16:50:56.666Z,2.60
2022-12-08T16:53:24.986Z,2.40
2022-12-08T16:55:53.113Z,2.40
2022-12-08T16:58:21.791Z,2.40
2022-12-08T17:00:50.067Z,2.40
2022-12-08T17:03:18.783Z,2.30
2022-12-08T17:05:48.678Z,2.50
2022-12-08T17:08:17.483Z,2.50
2022-12-08T17:11:05.927Z,2.40
2022-12-08T17:13:34.290Z,2.40
2022-12-08T17:16:02.625Z,2.30
2022-12-08T17:18:30.889Z,2.40
2022-12-08T17:21:00.318Z,2.50
2022-12-08T17:23:28.743Z,2.50
2022-12-08T17:26:00.947Z,2.30
2022-12-08T17:28:51.962Z,2.20
2022-12-08T17:31:17.817Z,2.20
2022-12-08T17:33:46.081Z,2.30
2022-12-08T17:36:17.784Z,2.30
2022-12-08T17:38:46.014Z,2.30
2022-12-08T17:41:14.104Z,2.30
2022-12-08T17:43:42.911Z,2.20
2022-12-08T17:46:11.060Z,2.20
2022-12-08T17:48:39.150Z,2.10
2022-12-08T17:51:10.713Z,2.00
2022-12-08T17:53:40.960Z,2.00
2022-12-08T17:56:16.215Z,1.90
2022-12-08T17:58:45.701Z,1.90
2022-12-08T18:01:15.692Z,2.00
2022-12-08T18:03:44.189Z,2.00
2022-12-08T18:06:13.345Z,2.10
2022-12-08T18:08:45.439Z,2.00
2022-12-08T18:11:15.517Z,2.00
2022-12-08T18:13:46.452Z,1.90
2022-12-08T18:16:15.442Z,2.00
2022-12-08T18:18:43.940Z,1.90
2022-12-08T18:21:12.428Z,1.90
2022-12-08T18:23:41.779Z,1.90
2022-12-08T18:26:14.053Z,1.90
2022-12-08T18:28:44.550Z,1.90
2022-12-08T18:31:14.760Z,1.90
2022-12-08T18:33:45.112Z,2.00
2022-12-08T18:36:15.697Z,1.90
2022-12-08T18:38:43.861Z,1.90
2022-12-08T18:41:16.099Z,1.80
2022-12-08T18:43:44.622Z,1.90
2022-12-08T18:46:15.251Z,1.80
2022-12-08T18:48:46.701Z,1.70
2022-12-08T18:51:16.032Z,1.70
2022-12-08T18:53:45.337Z,1.70
2022-12-08T18:56:24.265Z,1.70
2022-12-08T18:58:53.133Z,1.60
2022-12-08T19:01:21.447Z,1.60
2022-12-08T19:04:19.720Z,1.60
2022-12-08T19:06:40.033Z,1.60
2022-12-08T19:09:08.964Z,1.50
2022-12-08T19:11:38.473Z,1.40
2022-12-08T19:14:07.299Z,1.40
2022-12-08T19:16:35.521Z,1.60
2022-12-08T19:19:03.619Z,1.40
2022-12-08T19:21:32.136Z,1.40
2022-12-08T19:24:00.374Z,1.40
2022-12-08T19:26:29.716Z,1.50
2022-12-08T19:28:59.562Z,1.60
2022-12-08T19:31:28.240Z,1.60
2022-12-08T19:33:59.357Z,1.70
2022-12-08T19:36:35.423Z,1.70
2022-12-08T19:39:22.008Z,1.70
2022-12-08T19:42:07.943Z,1.70
2022-12-08T19:44:55.652Z,1.70
2022-12-08T19:47:26.048Z,1.60
2022-12-08T19:50:15.641Z,1.60
2022-12-08T19:52:44.239Z,1.60
2022-12-08T19:55:13.283Z,1.60
2022-12-08T19:57:41.730Z,1.60
2022-12-08T20:00:13.661Z,1.60
2022-12-08T20:02:41.818Z,1.60
2022-12-08T20:05:11.267Z,1.50
2022-12-08T20:07:39.797Z,1.40
2022-12-08T20:10:16.104Z,1.40
2022-12-08T20:12:44.253Z,1.30
2022-12-08T20:15:14.786Z,1.20
2022-12-08T20:17:43.223Z,1.00
2022-12-08T20:20:14.454Z,0.90
2022-12-08T20:22:43.055Z,0.80
2022-12-08T20:25:13.238Z,0.90
2022-12-08T20:27:42.215Z,0.90
2022-12-08T20:30:17.284Z,0.90
2022-12-08T20:32:46.035Z,0.90
2022-12-08T20:35:14.172Z,0.80
2022-12-08T20:37:42.296Z,0.80
2022-12-08T20:40:11.076Z,0.60
2022-12-08T20:42:39.178Z,0.60
2022-12-08T20:45:09.450Z,0.70
2022-12-08T20:47:39.544Z,0.60
2022-12-08T20:50:09.907Z,0.60
2022-12-08T20:52:38.893Z,0.50
2022-12-08T20:55:08.583Z,0.40
2022-12-08T20:57:37.388Z,0.30
2022-12-08T21:00:06.867Z,0.20
2022-12-08T21:02:35.714Z,0.30
2022-12-08T21:05:06.365Z,0.30
2022-12-08T21:07:34.882Z,0.40
2022-12-08T21:10:04.157Z,0.40
2022-12-08T21:12:33.694Z,0.40
2022-12-08T21:15:02.301Z,0.40
2022-12-08T21:17:30.541Z,0.40
2022-12-08T21:19:58.766Z,0.40
2022-12-08T21:22:30.617Z,0.40
2022-12-08T21:24:58.832Z,0.40
2022-12-08T21:27:27.257Z,0.40
2022-12-08T21:29:55.530Z,0.40
2022-12-08T21:32:29.937Z,0.40
2022-12-08T21:34:58.688Z,0.40
2022-12-08T21:37:27.096Z,0.40
2022-12-08T21:39:56.886Z,0.40
2022-12-08T21:42:41.573Z,0.40
2022-12-08T21:45:11.545Z,0.40
2022-12-08T21:47:39.800Z,0.40
2022-12-08T21:50:11.016Z,0.40
2022-12-08T21:52:39.802Z,0.30
2022-12-08T21:55:12.242Z,0.30
2022-12-08T21:57:40.601Z,0.20
2022-12-08T22:00:11.879Z,0.30
2022-12-08T22:02:40.539Z,0.30
2022-12-08T22:05:09.583Z,0.30
2022-12-08T22:07:39.935Z,0.50
2022-12-08T22:10:10.813Z,0.40
2022-12-08T22:12:40.274Z,0.40
2022-12-08T22:15:10.200Z,0.40
2022-12-08T22:17:39.946Z,0.30
2022-12-08T22:20:11.495Z,0.30
2022-12-08T22:22:40.393Z,0.20
2022-12-08T22:25:12.596Z,0.10
2022-12-08T22:27:41.715Z,0.10
2022-12-08T22:30:11.903Z,0.00
2022-12-08T22:32:40.763Z,-0.10
2022-12-08T22:35:10.063Z,0.00
2022-12-08T22:37:38.180Z,0.00
2022-12-08T22:40:08.106Z,0.00
2022-12-08T22:42:38.013Z,0.00
2022-12-08T22:45:07.253Z,-0.20
2022-12-08T22:47:35.834Z,-0.20
2022-12-08T22:50:05.014Z,-0.20
2022-12-08T22:52:33.603Z,-0.20
2022-12-08T22:55:01.757Z,-0.10
2022-12-08T22:57:30.029Z,-0.20
2022-12-08T22:59:59.543Z,-0.30
2022-12-08T23:02:27.810Z,-0.30
2022-12-08T23:04:57.276Z,-0.40
2022-12-08T23:07:25.728Z,-0.60
2022-12-08T23:09:53.801Z,-0.70
2022-12-08T23:12:21.965Z,-0.70
2022-12-08T23:14:50.224Z,-0.70
2022-12-08T23:17:20.195Z,-0.80
2022-12-08T23:19:48.328Z,-0.80
2022-12-08T23:22:16.772Z,-0.80
2022-12-08T23:24:45.009Z,-0.70
2022-12-08T23:27:13.271Z,-0.70
2022-12-08T23:29:41.405Z,-0.70
2022-12-08T23:32:09.664Z,-0.60
2022-12-08T23:34:39.355Z,-0.50
2022-12-08T23:37:07.676Z,-0.20
2022-12-08T23:39:35.822Z,0.10
2022-12-08T23:42:04.251Z,0.20
2022-12-08T23:44:32.378Z,0.30
2022-12-08T23:47:00.927Z,0.10
2022-12-08T23:49:29.788Z,-0.10
2022-12-08T23:51:59.373Z,-0.30
2022-12-08T23:54:27.695Z,-0.50
2022-12-08T23:56:55.917Z,-0.60
2022-12-08T23:59:24.243Z,-0.80
